sensor_id;sensor_type;location;lat;lon;timestamp;pressure;altitude;pressure_sealevel;temperature;humidity
78313;BME280;67568;47.438;21.408;2023-09-08T00:02:27;101157.13;;;18.71;70.91
78313;BME280;67568;47.438;21.408;2023-09-08T00:04:58;101166.53;;;18.75;70.69
78313;BME280;67568;47.438;21.408;2023-09-08T00:07:24;101163.09;;;18.61;71.07
78313;BME280;67568;47.438;21.408;2023-09-08T00:09:51;101168.03;;;18.64;71.53
78313;BME280;67568;47.438;21.408;2023-09-08T00:12:21;101164.56;;;18.67;71.04
78313;BME280;67568;47.438;21.408;2023-09-08T00:14:50;101172.38;;;18.61;70.68
78313;BME280;67568;47.438;21.408;2023-09-08T00:17:17;101172.03;;;18.54;70.94
78313;BME280;67568;47.438;21.408;2023-09-08T00:19:46;101157.88;;;18.51;71.48
78313;BME280;67568;47.438;21.408;2023-09-08T00:22:13;101174.88;;;18.46;71.70
78313;BME280;67568;47.438;21.408;2023-09-08T00:24:40;101176.44;;;18.64;70.26
78313;BME280;67568;47.438;21.408;2023-09-08T00:27:14;101176.16;;;18.57;70.58
78313;BME280;67568;47.438;21.408;2023-09-08T00:29:41;101170.88;;;18.55;71.33
78313;BME280;67568;47.438;21.408;2023-09-08T00:32:07;101170.81;;;18.26;72.46
78313;BME280;67568;47.438;21.408;2023-09-08T00:34:34;101166.88;;;18.18;72.78
78313;BME280;67568;47.438;21.408;2023-09-08T00:37:01;101165.22;;;18.17;73.01
78313;BME280;67568;47.438;21.408;2023-09-08T00:39:27;101166.56;;;18.11;73.01
78313;BME280;67568;47.438;21.408;2023-09-08T00:41:54;101179.78;;;18.02;73.44
78313;BME280;67568;47.438;21.408;2023-09-08T00:44:21;101178.50;;;17.90;73.50
78313;BME280;67568;47.438;21.408;2023-09-08T00:46:48;101184.19;;;18.20;71.42
78313;BME280;67568;47.438;21.408;2023-09-08T00:49:18;101182.22;;;18.12;72.53
78313;BME280;67568;47.438;21.408;2023-09-08T00:51:45;101182.09;;;17.91;73.16
78313;BME280;67568;47.438;21.408;2023-09-08T00:54:12;101172.81;;;18.16;72.19
78313;BME280;67568;47.438;21.408;2023-09-08T00:56:40;101169.22;;;18.16;72.55
78313;BME280;67568;47.438;21.408;2023-09-08T00:59:07;101176.00;;;17.97;73.00
78313;BME280;67568;47.438;21.408;2023-09-08T01:01:34;101176.00;;;17.97;72.73
78313;BME280;67568;47.438;21.408;2023-09-08T01:04:01;101174.84;;;17.81;73.82
78313;BME280;67568;47.438;21.408;2023-09-08T01:06:29;101165.28;;;17.73;74.02
78313;BME280;67568;47.438;21.408;2023-09-08T01:09:02;101176.50;;;17.65;73.94
78313;BME280;67568;47.438;21.408;2023-09-08T01:11:30;101172.69;;;17.61;74.66
78313;BME280;67568;47.438;21.408;2023-09-08T01:13:56;101167.22;;;17.64;74.44
78313;BME280;67568;47.438;21.408;2023-09-08T01:16:23;101163.13;;;17.62;74.58
78313;BME280;67568;47.438;21.408;2023-09-08T01:18:51;101161.00;;;17.85;73.15
78313;BME280;67568;47.438;21.408;2023-09-08T01:26:41;101165.28;;;17.73;73.48
78313;BME280;67568;47.438;21.408;2023-09-08T01:29:10;101154.41;;;17.81;73.19
78313;BME280;67568;47.438;21.408;2023-09-08T01:31:40;101154.06;;;17.73;72.89
78313;BME280;67568;47.438;21.408;2023-09-08T01:34:07;101162.16;;;17.84;73.15
78313;BME280;67568;47.438;21.408;2023-09-08T01:36:35;101155.19;;;17.64;73.84
78313;BME280;67568;47.438;21.408;2023-09-08T01:39:02;101155.22;;;17.81;72.77
78313;BME280;67568;47.438;21.408;2023-09-08T01:41:29;101159.66;;;17.73;73.08
78313;BME280;67568;47.438;21.408;2023-09-08T01:43:57;101158.53;;;17.83;72.41
78313;BME280;67568;47.438;21.408;2023-09-08T01:46:24;101151.94;;;17.62;73.21
78313;BME280;67568;47.438;21.408;2023-09-08T01:48:50;101159.00;;;17.68;72.81
78313;BME280;67568;47.438;21.408;2023-09-08T01:51:17;101164.44;;;17.73;72.19
78313;BME280;67568;47.438;21.408;2023-09-08T01:53:44;101163.44;;;17.34;73.76
78313;BME280;67568;47.438;21.408;2023-09-08T01:56:11;101157.69;;;17.30;74.17
78313;BME280;67568;47.438;21.408;2023-09-08T01:58:52;101162.28;;;17.35;73.63
78313;BME280;67568;47.438;21.408;2023-09-08T02:01:18;101163.75;;;17.24;74.55
78313;BME280;67568;47.438;21.408;2023-09-08T02:03:45;101168.72;;;17.44;73.33
78313;BME280;67568;47.438;21.408;2023-09-08T02:06:12;101163.47;;;17.51;72.78
78313;BME280;67568;47.438;21.408;2023-09-08T02:08:42;101168.22;;;17.34;72.99
78313;BME280;67568;47.438;21.408;2023-09-08T02:11:08;101167.06;;;17.26;73.13
78313;BME280;67568;47.438;21.408;2023-09-08T02:13:36;101159.75;;;17.07;73.95
78313;BME280;67568;47.438;21.408;2023-09-08T02:16:06;101165.56;;;17.20;73.46
78313;BME280;67568;47.438;21.408;2023-09-08T02:18:32;101162.78;;;17.28;71.59
78313;BME280;67568;47.438;21.408;2023-09-08T02:21:00;101163.44;;;17.25;71.79
78313;BME280;67568;47.438;21.408;2023-09-08T02:23:27;101165.25;;;17.30;71.96
78313;BME280;67568;47.438;21.408;2023-09-08T02:25:53;101154.88;;;17.22;72.46
78313;BME280;67568;47.438;21.408;2023-09-08T02:28:20;101161.78;;;17.33;71.89
78313;BME280;67568;47.438;21.408;2023-09-08T02:30:47;101152.69;;;17.01;71.98
78313;BME280;67568;47.438;21.408;2023-09-08T02:33:14;101158.75;;;16.86;73.29
78313;BME280;67568;47.438;21.408;2023-09-08T02:35:41;101156.94;;;16.99;72.38
78313;BME280;67568;47.438;21.408;2023-09-08T02:38:09;101154.03;;;17.21;71.75
78313;BME280;67568;47.438;21.408;2023-09-08T02:40:38;101157.34;;;17.23;71.91
78313;BME280;67568;47.438;21.408;2023-09-08T02:43:05;101153.53;;;17.11;72.45
78313;BME280;67568;47.438;21.408;2023-09-08T02:45:33;101154.00;;;17.13;72.29
78313;BME280;67568;47.438;21.408;2023-09-08T02:48:02;101148.41;;;17.13;71.88
78313;BME280;67568;47.438;21.408;2023-09-08T02:50:29;101153.06;;;17.26;71.22
78313;BME280;67568;47.438;21.408;2023-09-08T02:52:57;101144.63;;;17.08;71.13
78313;BME280;67568;47.438;21.408;2023-09-08T02:55:24;101143.50;;;17.27;71.16
78313;BME280;67568;47.438;21.408;2023-09-08T02:57:51;101138.75;;;17.36;70.39
78313;BME280;67568;47.438;21.408;2023-09-08T03:00:18;101150.41;;;17.38;70.84
78313;BME280;67568;47.438;21.408;2023-09-08T03:02:48;101135.72;;;17.06;71.68
78313;BME280;67568;47.438;21.408;2023-09-08T03:05:19;101151.91;;;17.27;70.79
78313;BME280;67568;47.438;21.408;2023-09-08T03:07:49;101148.38;;;16.95;72.34
78313;BME280;67568;47.438;21.408;2023-09-08T03:10:23;101143.16;;;17.11;71.57
78313;BME280;67568;47.438;21.408;2023-09-08T03:12:50;101145.81;;;17.16;70.56
78313;BME280;67568;47.438;21.408;2023-09-08T03:15:17;101150.22;;;17.08;71.37
78313;BME280;67568;47.438;21.408;2023-09-08T03:17:44;101155.50;;;17.10;71.26
78313;BME280;67568;47.438;21.408;2023-09-08T03:20:13;101151.06;;;17.09;70.89
78313;BME280;67568;47.438;21.408;2023-09-08T03:22:43;101153.16;;;16.86;72.35
78313;BME280;67568;47.438;21.408;2023-09-08T03:25:10;101146.25;;;16.92;71.92
78313;BME280;67568;47.438;21.408;2023-09-08T03:27:40;101148.25;;;17.00;71.65
78313;BME280;67568;47.438;21.408;2023-09-08T03:30:09;101144.88;;;16.81;72.44
78313;BME280;67568;47.438;21.408;2023-09-08T03:32:36;101153.97;;;16.95;72.04
78313;BME280;67568;47.438;21.408;2023-09-08T03:35:04;101154.13;;;16.90;71.97
78313;BME280;67568;47.438;21.408;2023-09-08T03:37:31;101152.34;;;16.94;71.69
78313;BME280;67568;47.438;21.408;2023-09-08T03:39:57;101155.78;;;16.91;71.14
78313;BME280;67568;47.438;21.408;2023-09-08T03:42:27;101156.13;;;16.98;71.21
78313;BME280;67568;47.438;21.408;2023-09-08T03:44:54;101155.78;;;16.91;70.91
78313;BME280;67568;47.438;21.408;2023-09-08T03:47:21;101157.09;;;16.85;71.41
78313;BME280;67568;47.438;21.408;2023-09-08T03:49:50;101151.84;;;16.92;71.16
78313;BME280;67568;47.438;21.408;2023-09-08T03:52:16;101160.09;;;16.97;70.31
78313;BME280;67568;47.438;21.408;2023-09-08T03:54:46;101163.16;;;16.78;71.02
78313;BME280;67568;47.438;21.408;2023-09-08T03:57:13;101159.78;;;16.68;71.36
78313;BME280;67568;47.438;21.408;2023-09-08T03:59:40;101166.56;;;16.75;71.00
78313;BME280;67568;47.438;21.408;2023-09-08T04:02:07;101162.78;;;16.71;71.05
78313;BME280;67568;47.438;21.408;2023-09-08T04:04:37;101170.84;;;16.73;70.79
78313;BME280;67568;47.438;21.408;2023-09-08T04:07:04;101164.16;;;16.82;70.93
78313;BME280;67568;47.438;21.408;2023-09-08T04:09:33;101168.31;;;16.85;70.45
78313;BME280;67568;47.438;21.408;2023-09-08T04:12:01;101171.88;;;16.77;70.69
78313;BME280;67568;47.438;21.408;2023-09-08T04:14:28;101181.78;;;16.83;71.04
78313;BME280;67568;47.438;21.408;2023-09-08T04:17:04;101181.94;;;16.86;70.63
78313;BME280;67568;47.438;21.408;2023-09-08T04:19:37;101183.28;;;16.89;70.35
78313;BME280;67568;47.438;21.408;2023-09-08T04:22:04;101177.53;;;16.85;70.47
78313;BME280;67568;47.438;21.408;2023-09-08T04:24:35;101183.84;;;16.69;70.40
78313;BME280;67568;47.438;21.408;2023-09-08T04:27:03;101187.94;;;16.62;71.07
78313;BME280;67568;47.438;21.408;2023-09-08T04:29:32;101189.44;;;16.69;70.49
78313;BME280;67568;47.438;21.408;2023-09-08T04:32:02;101192.34;;;16.86;70.38
78313;BME280;67568;47.438;21.408;2023-09-08T04:34:39;101194.63;;;16.84;70.52
78313;BME280;67568;47.438;21.408;2023-09-08T04:37:08;101197.09;;;16.85;70.39
78313;BME280;67568;47.438;21.408;2023-09-08T04:39:35;101198.28;;;16.93;70.20
78313;BME280;67568;47.438;21.408;2023-09-08T04:42:03;101197.44;;;16.93;70.17
78313;BME280;67568;47.438;21.408;2023-09-08T04:44:30;101196.44;;;16.80;70.46
78313;BME280;67568;47.438;21.408;2023-09-08T04:46:57;101193.03;;;17.00;70.20
78313;BME280;67568;47.438;21.408;2023-09-08T04:49:24;101200.88;;;16.81;71.23
78313;BME280;67568;47.438;21.408;2023-09-08T04:51:51;101204.50;;;16.81;71.60
78313;BME280;67568;47.438;21.408;2023-09-08T04:54:18;101197.91;;;16.77;71.89
78313;BME280;67568;47.438;21.408;2023-09-08T04:56:45;101200.69;;;16.77;71.65
78313;BME280;67568;47.438;21.408;2023-09-08T04:59:12;101197.84;;;17.08;70.59
78313;BME280;67568;47.438;21.408;2023-09-08T05:01:38;101198.66;;;17.09;70.99
78313;BME280;67568;47.438;21.408;2023-09-08T05:04:11;101190.09;;;17.05;70.61
78313;BME280;67568;47.438;21.408;2023-09-08T05:06:41;101206.94;;;17.23;71.03
78313;BME280;67568;47.438;21.408;2023-09-08T05:09:09;101205.72;;;16.98;71.66
78313;BME280;67568;47.438;21.408;2023-09-08T05:11:39;101207.53;;;17.02;71.71
78313;BME280;67568;47.438;21.408;2023-09-08T05:14:07;101204.13;;;17.14;71.34
78313;BME280;67568;47.438;21.408;2023-09-08T05:16:37;101208.72;;;17.27;71.41
78313;BME280;67568;47.438;21.408;2023-09-08T05:19:04;101200.69;;;17.43;69.93
78313;BME280;67568;47.438;21.408;2023-09-08T05:21:34;101209.63;;;17.63;69.48
78313;BME280;67568;47.438;21.408;2023-09-08T05:24:00;101202.31;;;17.27;70.94
78313;BME280;67568;47.438;21.408;2023-09-08T05:26:27;101205.97;;;17.36;70.88
78313;BME280;67568;47.438;21.408;2023-09-08T05:28:54;101213.25;;;17.54;70.41
78313;BME280;67568;47.438;21.408;2023-09-08T05:31:21;101212.56;;;17.58;70.38
78313;BME280;67568;47.438;21.408;2023-09-08T05:33:48;101213.28;;;17.89;69.07
78313;BME280;67568;47.438;21.408;2023-09-08T05:36:15;101216.25;;;18.02;68.59
78313;BME280;67568;47.438;21.408;2023-09-08T05:38:41;101222.03;;;17.96;68.65
78313;BME280;67568;47.438;21.408;2023-09-08T05:41:08;101215.38;;;18.18;67.52
78313;BME280;67568;47.438;21.408;2023-09-08T05:43:35;101210.59;;;18.28;67.45
78313;BME280;67568;47.438;21.408;2023-09-08T05:46:02;101217.31;;;18.44;66.50
78313;BME280;67568;47.438;21.408;2023-09-08T05:48:40;101221.72;;;18.62;66.42
78313;BME280;67568;47.438;21.408;2023-09-08T05:51:20;101224.34;;;18.76;65.85
78313;BME280;67568;47.438;21.408;2023-09-08T05:53:51;101225.91;;;18.95;64.92
78313;BME280;67568;47.438;21.408;2023-09-08T05:56:19;101230.13;;;19.09;64.76
78313;BME280;67568;47.438;21.408;2023-09-08T05:58:46;101228.94;;;18.81;64.55
78313;BME280;67568;47.438;21.408;2023-09-08T06:01:28;101223.44;;;19.52;63.17
78313;BME280;67568;47.438;21.408;2023-09-08T06:03:55;101230.94;;;19.69;63.52
78313;BME280;67568;47.438;21.408;2023-09-08T06:06:25;101234.41;;;20.08;61.54
78313;BME280;67568;47.438;21.408;2023-09-08T06:08:52;101233.31;;;20.21;62.30
78313;BME280;67568;47.438;21.408;2023-09-08T06:11:18;101231.59;;;20.08;61.79
78313;BME280;67568;47.438;21.408;2023-09-08T06:13:45;101227.59;;;19.76;62.41
78313;BME280;67568;47.438;21.408;2023-09-08T06:16:12;101226.22;;;19.82;62.01
78313;BME280;67568;47.438;21.408;2023-09-08T06:18:39;101236.84;;;20.31;60.99
78313;BME280;67568;47.438;21.408;2023-09-08T06:21:07;101236.97;;;20.01;60.90
78313;BME280;67568;47.438;21.408;2023-09-08T06:23:35;101233.16;;;20.51;61.16
78313;BME280;67568;47.438;21.408;2023-09-08T06:26:03;101231.56;;;20.62;60.44
78313;BME280;67568;47.438;21.408;2023-09-08T06:28:33;101234.38;;;20.75;60.27
78313;BME280;67568;47.438;21.408;2023-09-08T06:31:04;101235.00;;;21.17;59.56
78313;BME280;67568;47.438;21.408;2023-09-08T06:33:31;101243.16;;;21.43;59.36
78313;BME280;67568;47.438;21.408;2023-09-08T06:35:58;101238.28;;;21.56;58.08
78313;BME280;67568;47.438;21.408;2023-09-08T06:38:25;101241.28;;;21.88;56.24
78313;BME280;67568;47.438;21.408;2023-09-08T06:40:52;101239.50;;;21.95;54.99
78313;BME280;67568;47.438;21.408;2023-09-08T06:43:19;101238.28;;;22.37;54.84
78313;BME280;67568;47.438;21.408;2023-09-08T06:45:49;101238.88;;;22.58;55.16
78313;BME280;67568;47.438;21.408;2023-09-08T06:48:18;101236.31;;;22.85;54.69
78313;BME280;67568;47.438;21.408;2023-09-08T06:50:45;101244.53;;;22.74;53.65
78313;BME280;67568;47.438;21.408;2023-09-08T06:53:12;101239.66;;;23.03;53.54
78313;BME280;67568;47.438;21.408;2023-09-08T06:55:39;101242.06;;;23.36;53.56
78313;BME280;67568;47.438;21.408;2023-09-08T06:58:13;101241.03;;;23.60;52.21
78313;BME280;67568;47.438;21.408;2023-09-08T07:00:39;101241.75;;;23.57;51.68
78313;BME280;67568;47.438;21.408;2023-09-08T07:03:06;101242.66;;;23.61;50.56
78313;BME280;67568;47.438;21.408;2023-09-08T07:05:34;101248.16;;;24.09;51.11
78313;BME280;67568;47.438;21.408;2023-09-08T07:08:01;101245.16;;;24.01;51.25
78313;BME280;67568;47.438;21.408;2023-09-08T07:10:28;101250.00;;;24.40;50.87
78313;BME280;67568;47.438;21.408;2023-09-08T07:12:55;101247.94;;;24.56;49.60
78313;BME280;67568;47.438;21.408;2023-09-08T07:15:21;101248.03;;;25.09;48.13
78313;BME280;67568;47.438;21.408;2023-09-08T07:17:48;101248.81;;;25.06;47.42
78313;BME280;67568;47.438;21.408;2023-09-08T07:20:20;101246.16;;;24.94;46.85
78313;BME280;67568;47.438;21.408;2023-09-08T07:22:50;101251.97;;;25.51;46.05
78313;BME280;67568;47.438;21.408;2023-09-08T07:25:17;101252.91;;;25.32;46.20
78313;BME280;67568;47.438;21.408;2023-09-08T07:27:44;101251.94;;;25.01;45.17
78313;BME280;67568;47.438;21.408;2023-09-08T07:30:11;101249.19;;;25.28;45.28
78313;BME280;67568;47.438;21.408;2023-09-08T07:32:38;101251.91;;;24.98;45.64
78313;BME280;67568;47.438;21.408;2023-09-08T07:35:08;101252.03;;;25.28;46.29
78313;BME280;67568;47.438;21.408;2023-09-08T07:37:35;101248.31;;;25.24;46.07
78313;BME280;67568;47.438;21.408;2023-09-08T07:40:02;101246.53;;;25.16;46.05
78313;BME280;67568;47.438;21.408;2023-09-08T07:42:29;101247.66;;;25.34;46.50
78313;BME280;67568;47.438;21.408;2023-09-08T07:44:56;101245.97;;;24.83;45.86
78313;BME280;67568;47.438;21.408;2023-09-08T07:47:23;101244.38;;;25.32;46.24
78313;BME280;67568;47.438;21.408;2023-09-08T07:49:50;101242.28;;;25.55;45.55
78313;BME280;67568;47.438;21.408;2023-09-08T07:52:20;101240.34;;;25.60;45.42
78313;BME280;67568;47.438;21.408;2023-09-08T07:54:51;101248.97;;;25.40;44.00
78313;BME280;67568;47.438;21.408;2023-09-08T07:57:23;101241.22;;;25.37;43.41
78313;BME280;67568;47.438;21.408;2023-09-08T07:59:50;101238.88;;;25.43;43.85
78313;BME280;67568;47.438;21.408;2023-09-08T08:02:17;101241.13;;;25.87;43.33
78313;BME280;67568;47.438;21.408;2023-09-08T08:04:44;101247.06;;;25.78;41.92
78313;BME280;67568;47.438;21.408;2023-09-08T08:07:10;101238.69;;;25.58;40.82
78313;BME280;67568;47.438;21.408;2023-09-08T08:09:37;101252.66;;;25.44;42.33
78313;BME280;67568;47.438;21.408;2023-09-08T08:12:04;101237.34;;;25.49;41.87
78313;BME280;67568;47.438;21.408;2023-09-08T08:14:31;101239.44;;;25.25;42.16
78313;BME280;67568;47.438;21.408;2023-09-08T08:16:58;101237.91;;;25.31;42.28
78313;BME280;67568;47.438;21.408;2023-09-08T08:19:25;101236.28;;;25.61;42.09
78313;BME280;67568;47.438;21.408;2023-09-08T08:21:53;101245.81;;;25.45;41.45
78313;BME280;67568;47.438;21.408;2023-09-08T08:24:21;101244.28;;;25.51;40.64
78313;BME280;67568;47.438;21.408;2023-09-08T08:26:48;101239.13;;;25.61;40.53
78313;BME280;67568;47.438;21.408;2023-09-08T08:29:15;101233.88;;;25.89;40.49
78313;BME280;67568;47.438;21.408;2023-09-08T08:31:41;101235.78;;;26.12;40.80
78313;BME280;67568;47.438;21.408;2023-09-08T08:34:08;101231.38;;;26.18;40.54
78313;BME280;67568;47.438;21.408;2023-09-08T08:36:35;101236.84;;;26.34;40.50
78313;BME280;67568;47.438;21.408;2023-09-08T08:39:02;101232.28;;;26.59;39.34
78313;BME280;67568;47.438;21.408;2023-09-08T08:41:29;101225.88;;;26.69;39.41
78313;BME280;67568;47.438;21.408;2023-09-08T08:43:56;101233.25;;;26.78;39.24
78313;BME280;67568;47.438;21.408;2023-09-08T08:46:27;101234.50;;;26.77;39.37
78313;BME280;67568;47.438;21.408;2023-09-08T08:48:58;101230.09;;;26.45;39.05
78313;BME280;67568;47.438;21.408;2023-09-08T08:51:26;101233.75;;;26.50;40.49
78313;BME280;67568;47.438;21.408;2023-09-08T08:53:54;101231.25;;;26.78;40.04
78313;BME280;67568;47.438;21.408;2023-09-08T09:14:04;101231.84;;;28.27;37.06
78313;BME280;67568;47.438;21.408;2023-09-08T09:16:38;101234.38;;;28.67;35.24
78313;BME280;67568;47.438;21.408;2023-09-08T09:19:05;101218.09;;;27.66;34.17
78313;BME280;67568;47.438;21.408;2023-09-08T09:21:47;101219.97;;;28.17;35.93
78313;BME280;67568;47.438;21.408;2023-09-08T09:24:28;101225.00;;;28.56;35.71
78313;BME280;67568;47.438;21.408;2023-09-08T09:26:56;101227.03;;;28.59;35.66
78313;BME280;67568;47.438;21.408;2023-09-08T09:29:23;101225.38;;;28.51;35.26
78313;BME280;67568;47.438;21.408;2023-09-08T09:31:53;101222.97;;;28.53;35.47
78313;BME280;67568;47.438;21.408;2023-09-08T09:34:23;101221.28;;;28.38;35.63
78313;BME280;67568;47.438;21.408;2023-09-08T09:36:55;101210.72;;;28.42;34.97
78313;BME280;67568;47.438;21.408;2023-09-08T09:39:24;101219.22;;;28.38;35.79
78313;BME280;67568;47.438;21.408;2023-09-08T09:41:56;101212.66;;;28.16;36.00
78313;BME280;67568;47.438;21.408;2023-09-08T09:44:24;101211.41;;;28.14;36.44
78313;BME280;67568;47.438;21.408;2023-09-08T09:46:53;101213.50;;;28.28;36.26
78313;BME280;67568;47.438;21.408;2023-09-08T09:49:20;101207.47;;;28.68;36.32
78313;BME280;67568;47.438;21.408;2023-09-08T09:51:50;101209.84;;;28.27;36.48
78313;BME280;67568;47.438;21.408;2023-09-08T09:54:17;101213.13;;;28.36;36.77
78313;BME280;67568;47.438;21.408;2023-09-08T09:56:45;101209.84;;;28.23;35.12
78313;BME280;67568;47.438;21.408;2023-09-08T09:59:15;101204.88;;;28.06;35.76
78313;BME280;67568;47.438;21.408;2023-09-08T10:01:41;101213.00;;;28.00;35.91
78313;BME280;67568;47.438;21.408;2023-09-08T10:04:09;101202.28;;;27.72;37.54
78313;BME280;67568;47.438;21.408;2023-09-08T10:06:39;101199.59;;;28.08;36.73
78313;BME280;67568;47.438;21.408;2023-09-08T10:09:06;101196.00;;;27.38;37.15
78313;BME280;67568;47.438;21.408;2023-09-08T10:11:47;101200.94;;;28.57;37.03
78313;BME280;67568;47.438;21.408;2023-09-08T10:14:15;101201.72;;;29.72;33.85
78313;BME280;67568;47.438;21.408;2023-09-08T10:16:44;101195.66;;;29.42;35.59
78313;BME280;67568;47.438;21.408;2023-09-08T10:19:11;101201.81;;;29.04;35.73
78313;BME280;67568;47.438;21.408;2023-09-08T10:21:42;101189.09;;;28.41;34.72
78313;BME280;67568;47.438;21.408;2023-09-08T10:24:27;101185.50;;;28.58;34.49
78313;BME280;67568;47.438;21.408;2023-09-08T10:27:21;101183.03;;;28.57;34.63
78313;BME280;67568;47.438;21.408;2023-09-08T10:29:48;101191.94;;;28.34;35.59
78313;BME280;67568;47.438;21.408;2023-09-08T10:32:20;101192.03;;;28.69;35.13
78313;BME280;67568;47.438;21.408;2023-09-08T10:34:48;101188.75;;;28.53;35.97
78313;BME280;67568;47.438;21.408;2023-09-08T10:37:21;101187.75;;;27.99;35.78
78313;BME280;67568;47.438;21.408;2023-09-08T10:39:47;101186.19;;;28.19;36.34
78313;BME280;67568;47.438;21.408;2023-09-08T10:47:41;101178.84;;;28.04;36.02
78313;BME280;67568;47.438;21.408;2023-09-08T10:50:27;101171.94;;;28.12;36.38
78313;BME280;67568;47.438;21.408;2023-09-08T10:53:26;101170.78;;;28.35;35.97
78313;BME280;67568;47.438;21.408;2023-09-08T10:55:53;101163.06;;;28.53;35.61
78313;BME280;67568;47.438;21.408;2023-09-08T10:58:34;101162.66;;;28.44;36.01
78313;BME280;67568;47.438;21.408;2023-09-08T11:01:01;101162.59;;;28.15;36.51
78313;BME280;67568;47.438;21.408;2023-09-08T11:06:09;101151.59;;;28.28;36.92
78313;BME280;67568;47.438;21.408;2023-09-08T11:08:42;101152.41;;;28.29;36.48
78313;BME280;67568;47.438;21.408;2023-09-08T11:11:13;101150.38;;;28.22;36.29
78313;BME280;67568;47.438;21.408;2023-09-08T11:13:41;101149.56;;;28.21;36.64
78313;BME280;67568;47.438;21.408;2023-09-08T11:16:10;101144.66;;;28.18;36.79
78313;BME280;67568;47.438;21.408;2023-09-08T11:18:37;101155.69;;;28.31;36.47
78313;BME280;67568;47.438;21.408;2023-09-08T11:21:08;101149.59;;;28.32;36.73
78313;BME280;67568;47.438;21.408;2023-09-08T11:23:36;101152.00;;;28.12;36.38
78313;BME280;67568;47.438;21.408;2023-09-08T11:26:05;101148.63;;;27.82;37.03
78313;BME280;67568;47.438;21.408;2023-09-08T11:28:36;101138.06;;;27.86;37.10
78313;BME280;67568;47.438;21.408;2023-09-08T11:31:05;101143.00;;;28.03;37.57
78313;BME280;67568;47.438;21.408;2023-09-08T11:33:35;101137.28;;;28.03;37.35
78313;BME280;67568;47.438;21.408;2023-09-08T11:36:02;101137.31;;;28.10;37.38
78313;BME280;67568;47.438;21.408;2023-09-08T11:38:29;101134.84;;;28.01;36.38
78313;BME280;67568;47.438;21.408;2023-09-08T11:41:01;101136.47;;;28.06;38.36
78313;BME280;67568;47.438;21.408;2023-09-08T11:43:28;101134.44;;;27.99;37.10
78313;BME280;67568;47.438;21.408;2023-09-08T11:45:55;101132.84;;;28.13;36.82
78313;BME280;67568;47.438;21.408;2023-09-08T11:48:24;101126.72;;;28.03;36.87
78313;BME280;67568;47.438;21.408;2023-09-08T11:50:54;101122.63;;;27.94;36.70
78313;BME280;67568;47.438;21.408;2023-09-08T11:53:22;101129.81;;;27.66;36.47
78313;BME280;67568;47.438;21.408;2023-09-08T11:55:49;101116.75;;;27.51;36.28
78313;BME280;67568;47.438;21.408;2023-09-08T11:58:20;101124.91;;;27.56;36.52
78313;BME280;67568;47.438;21.408;2023-09-08T12:00:47;101117.41;;;27.19;35.79
78313;BME280;67568;47.438;21.408;2023-09-08T12:03:17;101112.84;;;27.07;37.41
78313;BME280;67568;47.438;21.408;2023-09-08T12:05:53;101108.56;;;27.39;36.88
78313;BME280;67568;47.438;21.408;2023-09-08T12:08:20;101107.41;;;27.54;38.47
78313;BME280;67568;47.438;21.408;2023-09-08T12:10:47;101103.31;;;27.55;37.11
78313;BME280;67568;47.438;21.408;2023-09-08T12:13:21;101103.59;;;27.21;37.29
78313;BME280;67568;47.438;21.408;2023-09-08T12:15:48;101099.53;;;27.29;36.90
78313;BME280;67568;47.438;21.408;2023-09-08T12:18:15;101102.88;;;27.46;37.87
78313;BME280;67568;47.438;21.408;2023-09-08T12:21:03;101098.47;;;27.59;36.60
78313;BME280;67568;47.438;21.408;2023-09-08T12:23:30;101094.00;;;27.62;36.89
78313;BME280;67568;47.438;21.408;2023-09-08T12:25:57;101088.31;;;27.62;36.80
78313;BME280;67568;47.438;21.408;2023-09-08T12:28:30;101086.97;;;27.30;37.49
78313;BME280;67568;47.438;21.408;2023-09-08T12:30:57;101082.09;;;27.34;36.51
78313;BME280;67568;47.438;21.408;2023-09-08T12:33:26;101089.47;;;27.43;36.80
78313;BME280;67568;47.438;21.408;2023-09-08T12:35:55;101088.97;;;27.26;38.10
78313;BME280;67568;47.438;21.408;2023-09-08T12:38:22;101072.63;;;27.12;35.14
78313;BME280;67568;47.438;21.408;2023-09-08T12:40:49;101072.19;;;27.10;35.80
78313;BME280;67568;47.438;21.408;2023-09-08T12:43:15;101066.19;;;27.19;35.58
78313;BME280;67568;47.438;21.408;2023-09-08T12:45:54;101062.22;;;27.45;35.42
78313;BME280;67568;47.438;21.408;2023-09-08T12:48:22;101053.69;;;27.49;36.24
78313;BME280;67568;47.438;21.408;2023-09-08T12:50:49;101063.09;;;27.60;36.15
78313;BME280;67568;47.438;21.408;2023-09-08T12:53:16;101062.22;;;27.49;36.34
78313;BME280;67568;47.438;21.408;2023-09-08T12:55:43;101057.72;;;27.37;36.46
78313;BME280;67568;47.438;21.408;2023-09-08T12:58:10;101054.53;;;27.60;36.93
78313;BME280;67568;47.438;21.408;2023-09-08T13:00:38;101050.03;;;27.52;37.66
78313;BME280;67568;47.438;21.408;2023-09-08T13:03:04;101056.94;;;27.44;36.42
78313;BME280;67568;47.438;21.408;2023-09-08T13:05:31;101053.28;;;27.47;36.46
78313;BME280;67568;47.438;21.408;2023-09-08T13:07:59;101059.03;;;27.68;36.78
78313;BME280;67568;47.438;21.408;2023-09-08T13:10:26;101056.63;;;27.67;35.65
78313;BME280;67568;47.438;21.408;2023-09-08T13:12:52;101047.19;;;27.48;35.88
78313;BME280;67568;47.438;21.408;2023-09-08T13:15:19;101046.72;;;27.32;36.06
78313;BME280;67568;47.438;21.408;2023-09-08T13:17:46;101049.03;;;27.12;36.54
78313;BME280;67568;47.438;21.408;2023-09-08T13:20:13;101052.22;;;27.03;36.67